Time;durP1;ratioP1;P1;durP2;ratioP2;P2;SDS_P1;SDS_P2;PMS_P1;PMS_P2;Temp;Humidity;BMP_temperature;BMP_pressure;BME280_temperature;BME280_humidity;BME280_pressure;Samples;Min_cycle;Max_cycle;Signal;HPM_P1;HPM_P2
2022/11/12 00:02:14;;;;;;;;;37.75;35.25;;;;;-147.17;100.00;-15917.19;4991892;28;51084;-46
2022/11/12 00:04:39;;;;;;;;;41.00;36.75;;;;;-147.17;100.00;-15917.19;4991896;28;51059;-46
2022/11/12 00:07:04;;;;;;;;;42.25;36.75;;;;;-147.17;100.00;-15917.19;4992651;28;51621;-46
2022/11/12 00:09:30;;;;;;;;;29.75;29.25;;;;;-147.17;100.00;-15917.19;4987871;28;51143;-46
2022/11/12 00:11:55;;;;;;;;;34.00;33.75;;;;;-147.17;100.00;-15917.19;4992815;28;51116;-47
2022/11/12 00:14:20;;;;;;;;;35.50;35.00;;;;;-147.17;100.00;-15917.19;4981327;28;51351;-47
2022/11/12 00:16:46;;;;;;;;;33.00;32.50;;;;;-147.17;100.00;-15917.19;4992540;28;51859;-47
2022/11/12 00:19:11;;;;;;;;;28.75;27.25;;;;;-147.17;100.00;-15917.19;4992458;28;51367;-47
2022/11/12 00:21:37;;;;;;;;;18.00;18.00;;;;;-147.17;100.00;-15917.19;4992661;28;51090;-47
2022/11/12 00:24:02;;;;;;;;;31.25;27.25;;;;;-147.17;100.00;-15917.19;4992014;28;50931;-48
2022/11/12 00:26:28;;;;;;;;;31.25;30.00;;;;;-147.17;100.00;-15917.19;4986714;28;51576;-47
2022/11/12 00:28:54;;;;;;;;;33.00;31.25;;;;;-147.17;100.00;-15917.19;4992353;28;50968;-46
2022/11/12 00:31:19;;;;;;;;;25.00;24.50;;;;;-147.17;100.00;-15917.19;4992834;28;51082;-48
2022/11/12 00:33:45;;;;;;;;;29.50;28.25;;;;;-147.17;100.00;-15917.19;4992140;28;51315;-49
2022/11/12 00:36:10;;;;;;;;;30.25;30.00;;;;;-147.17;100.00;-15917.19;4992556;28;51611;-47
2022/11/12 00:38:36;;;;;;;;;32.75;27.25;;;;;-147.17;100.00;-15917.19;4992027;28;51169;-45
2022/11/12 00:41:01;;;;;;;;;26.50;23.75;;;;;-147.17;100.00;-15917.19;4992658;28;50903;-46
2022/11/12 00:43:27;;;;;;;;;27.50;27.00;;;;;-147.17;100.00;-15917.19;4991851;28;51090;-46
2022/11/12 00:45:52;;;;;;;;;28.50;28.50;;;;;-147.17;100.00;-15917.19;4991891;28;51807;-47
2022/11/12 00:48:18;;;;;;;;;25.75;23.75;;;;;-147.17;100.00;-15917.19;4992094;28;51136;-47
2022/11/12 00:50:43;;;;;;;;;29.50;28.75;;;;;-147.17;100.00;-15917.19;4992486;28;51569;-45
2022/11/12 00:53:09;;;;;;;;;29.50;28.00;;;;;-147.17;100.00;-15917.19;4991336;28;51187;-47
2022/11/12 00:55:34;;;;;;;;;19.00;18.00;;;;;-147.17;100.00;-15917.19;4978543;28;51035;-46
2022/11/12 00:57:59;;;;;;;;;21.50;18.25;;;;;-147.17;100.00;-15917.19;4991014;28;51235;-46
2022/11/12 01:00:25;;;;;;;;;28.25;26.50;;;;;-147.17;100.00;-15917.19;4994355;28;51476;-46
2022/11/12 01:02:50;;;;;;;;;26.25;22.75;;;;;-147.17;100.00;-15917.19;4991540;28;51018;-48
2022/11/12 01:05:16;;;;;;;;;27.00;25.00;;;;;-147.17;100.00;-15917.19;4995621;28;51135;-47
2022/11/12 01:07:42;;;;;;;;;28.25;27.50;;;;;-147.17;100.00;-15917.19;4995201;28;51303;-46
2022/11/12 01:10:09;;;;;;;;;27.00;26.50;;;;;-147.17;100.00;-15917.19;4995854;28;51069;-47
2022/11/12 01:12:34;;;;;;;;;20.50;19.75;;;;;-147.17;100.00;-15917.19;4996109;28;50947;-46
2022/11/12 01:15:00;;;;;;;;;24.75;21.50;;;;;-147.17;100.00;-15917.19;4994757;28;51847;-47
2022/11/12 01:17:26;;;;;;;;;24.75;22.75;;;;;-147.17;100.00;-15917.19;4985574;28;51012;-46
2022/11/12 01:19:51;;;;;;;;;26.00;25.25;;;;;-147.17;100.00;-15917.19;4992698;28;50886;-47
2022/11/12 01:22:16;;;;;;;;;26.50;26.50;;;;;-147.17;100.00;-15917.19;4978146;28;51207;-48
2022/11/12 01:24:42;;;;;;;;;20.75;20.75;;;;;-147.17;100.00;-15917.19;4995168;28;51944;-47
2022/11/12 01:27:07;;;;;;;;;26.50;24.25;;;;;-147.17;100.00;-15917.19;4985983;28;51048;-48
2022/11/12 01:29:32;;;;;;;;;29.25;28.00;;;;;-147.17;100.00;-15917.19;4995132;28;51690;-46
2022/11/12 01:31:57;;;;;;;;;24.50;24.50;;;;;-147.17;100.00;-15917.19;4994990;28;51434;-51
2022/11/12 01:34:23;;;;;;;;;29.50;27.75;;;;;-147.17;100.00;-15917.19;4993501;28;52880;-48
2022/11/12 01:36:48;;;;;;;;;33.75;30.00;;;;;-147.17;100.00;-15917.19;4995564;28;50985;-48
2022/11/12 01:39:13;;;;;;;;;34.25;29.50;;;;;-147.17;100.00;-15917.19;4990700;28;50990;-48
2022/11/12 01:41:40;;;;;;;;;23.75;23.50;;;;;-147.17;100.00;-15917.19;4977827;28;51021;-47
2022/11/12 01:44:20;;;;;;;;;26.25;25.50;;;;;-147.17;100.00;-15917.19;4994886;28;52550;-46
2022/11/12 01:46:51;;;;;;;;;28.25;26.25;;;;;-147.17;100.00;-15917.19;4986594;28;51038;-46
2022/11/12 01:49:22;;;;;;;;;26.50;26.00;;;;;-147.17;100.00;-15917.19;4990379;28;51473;-46
2022/11/12 01:51:50;;;;;;;;;24.00;24.00;;;;;-147.17;100.00;-15917.19;4977686;28;51210;-46
2022/11/12 01:54:18;;;;;;;;;23.75;23.75;;;;;-147.17;100.00;-15917.19;4999197;28;52025;-46
2022/11/12 01:56:45;;;;;;;;;25.75;24.75;;;;;-147.17;100.00;-15917.19;5002791;28;51031;-45
2022/11/12 01:59:18;;;;;;;;;23.25;22.00;;;;;-147.17;100.00;-15917.19;4994871;28;50902;-47
2022/11/12 02:01:43;;;;;;;;;26.75;24.50;;;;;-147.17;100.00;-15917.19;4988940;28;51104;-47
2022/11/12 02:04:09;;;;;;;;;26.75;25.75;;;;;-147.17;100.00;-15917.19;4993320;28;51615;-46
2022/11/12 02:06:35;;;;;;;;;27.75;26.75;;;;;-147.17;100.00;-15917.19;4994259;28;50989;-47
2022/11/12 02:09:01;;;;;;;;;25.25;24.50;;;;;-147.17;100.00;-15917.19;4994967;28;51096;-47
2022/11/12 02:11:27;;;;;;;;;27.50;26.75;;;;;-147.17;100.00;-15917.19;4994874;28;51406;-47
2022/11/12 02:13:56;;;;;;;;;25.50;25.00;;;;;-147.17;100.00;-15917.19;4994008;28;51144;-47
2022/11/12 02:16:22;;;;;;;;;29.25;28.00;;;;;-147.17;100.00;-15917.19;4993551;28;51060;-47
2022/11/12 02:18:48;;;;;;;;;28.50;26.50;;;;;-147.17;100.00;-15917.19;4994543;28;51009;-48
2022/11/12 02:21:17;;;;;;;;;27.75;26.75;;;;;-147.17;100.00;-15917.19;4987258;28;51357;-46
2022/11/12 02:23:42;;;;;;;;;30.00;28.25;;;;;-147.17;100.00;-15917.19;4989354;28;52302;-47
2022/11/12 02:26:08;;;;;;;;;13.50;10.75;;;;;-147.17;100.00;-15917.19;4971755;28;51026;-46
2022/11/12 02:28:34;;;;;;;;;26.25;24.75;;;;;-147.17;100.00;-15917.19;4994229;28;51902;-47
2022/11/12 02:30:59;;;;;;;;;23.25;22.50;;;;;-147.17;100.00;-15917.19;4994087;28;51135;-46
2022/11/12 02:33:24;;;;;;;;;22.75;22.50;;;;;-147.17;100.00;-15917.19;4993808;28;52029;-46
2022/11/12 02:35:49;;;;;;;;;28.25;26.25;;;;;-147.17;100.00;-15917.19;4993904;28;51178;-46
2022/11/12 02:38:15;;;;;;;;;27.50;26.75;;;;;-147.17;100.00;-15917.19;4991295;28;51049;-46
2022/11/12 02:40:40;;;;;;;;;26.00;24.75;;;;;-147.17;100.00;-15917.19;4994697;28;51448;-45
2022/11/12 02:43:05;;;;;;;;;23.00;23.00;;;;;-147.17;100.00;-15917.19;4993925;28;52753;-47
2022/11/12 02:45:31;;;;;;;;;23.50;22.50;;;;;-147.17;100.00;-15917.19;4994273;28;50899;-46
2022/11/12 02:47:56;;;;;;;;;24.00;22.00;;;;;-147.17;100.00;-15917.19;4975579;28;51059;-47
2022/11/12 02:50:22;;;;;;;;;25.25;24.50;;;;;-147.17;100.00;-15917.19;4992063;28;51360;-46
2022/11/12 02:52:47;;;;;;;;;25.25;25.25;;;;;-147.17;100.00;-15917.19;4989240;28;51864;-46
2022/11/12 02:55:13;;;;;;;;;27.25;24.00;;;;;-147.17;100.00;-15917.19;4996163;28;51062;-48
2022/11/12 02:57:39;;;;;;;;;24.75;24.00;;;;;-147.17;100.00;-15917.19;4994019;28;50992;-47
2022/11/12 03:00:08;;;;;;;;;26.50;26.00;;;;;-147.17;100.00;-15917.19;4994368;28;50946;-47
2022/11/12 03:02:33;;;;;;;;;23.50;22.00;;;;;-147.17;100.00;-15917.19;4989216;28;52096;-46
2022/11/12 03:04:58;;;;;;;;;26.00;23.75;;;;;-147.17;100.00;-15917.19;4993343;28;51042;-45
2022/11/12 03:07:24;;;;;;;;;26.00;26.00;;;;;-147.17;100.00;-15917.19;4992940;28;51136;-46
2022/11/12 03:09:50;;;;;;;;;21.75;21.75;;;;;-147.17;100.00;-15917.19;4994108;28;51093;-46
2022/11/12 03:12:15;;;;;;;;;25.00;23.00;;;;;-147.17;100.00;-15917.19;4993599;28;51035;-46
2022/11/12 03:14:40;;;;;;;;;20.75;20.25;;;;;-147.17;100.00;-15917.19;4993133;28;51222;-46
2022/11/12 03:17:06;;;;;;;;;26.25;22.00;;;;;-147.17;100.00;-15917.19;4992708;28;51225;-47
2022/11/12 03:19:31;;;;;;;;;20.25;19.50;;;;;-147.17;100.00;-15917.19;4993882;28;50993;-47
2022/11/12 03:21:56;;;;;;;;;25.00;22.25;;;;;-147.17;100.00;-15917.19;4992032;28;51231;-47
2022/11/12 03:24:22;;;;;;;;;22.50;21.00;;;;;-147.17;100.00;-15917.19;4981533;28;51024;-45
2022/11/12 03:26:47;;;;;;;;;22.50;20.00;;;;;-147.17;100.00;-15917.19;4990627;28;51009;-47
2022/11/12 03:29:12;;;;;;;;;26.25;25.50;;;;;-147.17;100.00;-15917.19;4993964;28;51070;-47
2022/11/12 03:31:38;;;;;;;;;19.75;19.75;;;;;-147.17;100.00;-15917.19;4993411;28;51612;-46
2022/11/12 03:34:03;;;;;;;;;15.75;15.00;;;;;-147.17;100.00;-15917.19;4975693;28;51024;-47
2022/11/12 03:36:28;;;;;;;;;22.50;21.75;;;;;-147.17;100.00;-15917.19;4992345;28;51193;-47
2022/11/12 03:38:54;;;;;;;;;22.00;21.00;;;;;-147.17;100.00;-15917.19;4983643;28;51320;-46
2022/11/12 03:41:19;;;;;;;;;23.25;22.00;;;;;-147.17;100.00;-15917.19;4992774;28;60346;-47
2022/11/12 03:43:44;;;;;;;;;21.50;20.75;;;;;-147.17;100.00;-15917.19;4993252;28;50911;-46
2022/11/12 03:46:10;;;;;;;;;23.00;23.00;;;;;-147.17;100.00;-15917.19;4993318;28;52728;-47
2022/11/12 03:48:35;;;;;;;;;23.25;22.00;;;;;-147.17;100.00;-15917.19;4993018;28;51145;-46
2022/11/12 03:51:00;;;;;;;;;21.50;21.50;;;;;-147.17;100.00;-15917.19;4992101;28;51992;-47
2022/11/12 03:53:26;;;;;;;;;19.50;19.50;;;;;-147.17;100.00;-15917.19;4993282;28;50983;-46
2022/11/12 03:55:52;;;;;;;;;25.25;22.75;;;;;-147.17;100.00;-15917.19;5004436;28;51526;-46
2022/11/12 03:58:17;;;;;;;;;21.50;21.50;;;;;-147.17;100.00;-15917.19;4993549;28;50916;-47
2022/11/12 04:00:42;;;;;;;;;19.00;18.25;;;;;-147.17;100.00;-15917.19;4992703;28;51882;-46
2022/11/12 04:03:08;;;;;;;;;22.00;22.00;;;;;-147.17;100.00;-15917.19;4985493;28;50962;-47
2022/11/12 04:08:35;;;;;;;;;8.75;7.50;;;;;-147.17;100.00;-15917.19;4993260;28;51136;-45
2022/11/12 04:11:02;;;;;;;;;25.50;24.75;;;;;-147.17;100.00;-15917.19;4992255;28;51083;-46
2022/11/12 04:13:28;;;;;;;;;25.00;21.50;;;;;-147.17;100.00;-15917.19;4989645;28;51267;-46
2022/11/12 04:26:22;;;;;;;;;22.50;22.50;;;;;-147.17;100.00;-15917.19;4979747;28;51143;-46
2022/11/12 04:27:00;;;;;;;;;23.25;23.00;;;;;-147.17;100.00;-15917.19;4984225;28;50911;-46
2022/11/12 04:32:09;;;;;;;;;20.75;19.75;;;;;-147.17;100.00;-15917.19;4992629;28;51490;-47
2022/11/12 04:34:34;;;;;;;;;25.50;24.00;;;;;-147.17;100.00;-15917.19;4973834;28;51258;-46
2022/11/12 04:37:03;;;;;;;;;23.75;23.25;;;;;-147.17;100.00;-15917.19;4991550;28;51025;-46
2022/11/12 04:39:29;;;;;;;;;26.25;23.25;;;;;-147.17;100.00;-15917.19;4991936;28;51312;-48
2022/11/12 04:47:21;;;;;;;;;23.25;22.50;;;;;-147.17;100.00;-15917.19;4992053;28;50999;-47
2022/11/12 04:49:46;;;;;;;;;22.25;20.75;;;;;-147.17;100.00;-15917.19;4992283;28;51134;-47
2022/11/12 04:52:12;;;;;;;;;27.50;23.75;;;;;-147.17;100.00;-15917.19;4987371;28;51851;-47
2022/11/12 04:54:37;;;;;;;;;24.50;22.00;;;;;-147.17;100.00;-15917.19;4989714;28;50974;-47
2022/11/12 04:57:02;;;;;;;;;25.00;23.75;;;;;-147.17;100.00;-15917.19;4992888;28;51641;-47
2022/11/12 04:59:28;;;;;;;;;23.00;21.75;;;;;-147.17;100.00;-15917.19;4992799;28;51179;-47
2022/11/12 05:01:53;;;;;;;;;18.75;18.75;;;;;-147.17;100.00;-15917.19;4985964;28;51606;-47
2022/11/12 05:04:19;;;;;;;;;24.75;20.50;;;;;-147.17;100.00;-15917.19;4992147;28;51093;-47
2022/11/12 05:06:50;;;;;;;;;23.00;23.00;;;;;-147.17;100.00;-15917.19;4991702;28;51020;-47
2022/11/12 05:09:15;;;;;;;;;25.50;23.00;;;;;-147.17;100.00;-15917.19;4992734;28;51003;-47
2022/11/12 05:11:41;;;;;;;;;21.50;21.25;;;;;-147.17;100.00;-15917.19;4991428;28;50894;-47
2022/11/12 05:14:06;;;;;;;;;22.00;21.50;;;;;-147.17;100.00;-15917.19;4992152;28;50972;-46
2022/11/12 05:16:31;;;;;;;;;26.00;24.50;;;;;-147.17;100.00;-15917.19;4992105;28;51438;-46
2022/11/12 05:18:57;;;;;;;;;24.00;23.50;;;;;-147.17;100.00;-15917.19;4992180;28;51076;-46
2022/11/12 05:24:06;;;;;;;;;24.75;24.75;;;;;-147.17;100.00;-15917.19;4992438;28;51079;-45
2022/11/12 05:26:32;;;;;;;;;27.50;23.00;;;;;-147.17;100.00;-15917.19;4977509;28;51080;-46
2022/11/12 05:28:57;;;;;;;;;23.25;22.50;;;;;-147.17;100.00;-15917.19;4992575;28;51125;-46
2022/11/12 05:31:22;;;;;;;;;24.50;21.75;;;;;-147.17;100.00;-15917.19;4991789;28;51159;-46
2022/11/12 05:33:48;;;;;;;;;25.50;23.50;;;;;-147.17;100.00;-15917.19;4973717;28;54498;-46
2022/11/12 05:36:13;;;;;;;;;22.25;22.00;;;;;-147.17;100.00;-15917.19;4991241;28;51175;-46
2022/11/12 05:38:38;;;;;;;;;26.75;24.50;;;;;-147.17;100.00;-15917.19;4992353;28;51411;-46
2022/11/12 05:41:04;;;;;;;;;25.00;25.00;;;;;-147.17;100.00;-15917.19;4991620;28;56786;-46
2022/11/12 05:43:29;;;;;;;;;25.75;23.25;;;;;-147.17;100.00;-15917.19;4978240;28;51097;-47
2022/11/12 05:45:55;;;;;;;;;20.00;19.00;;;;;-147.17;100.00;-15917.19;4959817;28;51037;-46
2022/11/12 05:48:20;;;;;;;;;26.00;23.50;;;;;-147.17;100.00;-15917.19;4977136;28;51170;-46
2022/11/12 05:50:49;;;;;;;;;28.00;25.75;;;;;-147.17;100.00;-15917.19;4987096;28;51898;-46
2022/11/12 05:53:15;;;;;;;;;22.50;21.25;;;;;-147.17;100.00;-15917.19;4994267;28;53244;-45
2022/11/12 05:55:40;;;;;;;;;25.50;24.25;;;;;-147.17;100.00;-15917.19;5005538;28;51334;-45
2022/11/12 05:58:06;;;;;;;;;16.00;15.75;;;;;-147.17;100.00;-15917.19;4993834;28;51127;-46
2022/11/12 06:00:37;;;;;;;;;24.00;22.50;;;;;-147.17;100.00;-15917.19;4993296;28;52065;-47
2022/11/12 06:03:03;;;;;;;;;21.25;19.50;;;;;-147.17;100.00;-15917.19;4994812;28;51052;-47
2022/11/12 06:05:28;;;;;;;;;24.75;22.25;;;;;-147.17;100.00;-15917.19;4994838;28;51126;-47
2022/11/12 06:07:54;;;;;;;;;23.50;21.50;;;;;-147.17;100.00;-15917.19;4994778;28;51332;-46
2022/11/12 06:10:19;;;;;;;;;24.50;23.50;;;;;-147.17;100.00;-15917.19;4993905;28;51922;-46
2022/11/12 06:12:44;;;;;;;;;23.75;22.00;;;;;-147.17;100.00;-15917.19;4994780;28;51045;-47
2022/11/12 06:15:10;;;;;;;;;24.75;23.75;;;;;-147.17;100.00;-15917.19;4993922;28;51133;-46
2022/11/12 06:17:35;;;;;;;;;31.00;25.25;;;;;-147.17;100.00;-15917.19;4994207;28;51074;-46
2022/11/12 06:20:00;;;;;;;;;24.00;20.50;;;;;-147.17;100.00;-15917.19;4994630;28;51847;-46
2022/11/12 06:22:26;;;;;;;;;28.75;26.75;;;;;-147.17;100.00;-15917.19;4994609;28;50939;-46
2022/11/12 06:24:51;;;;;;;;;19.00;18.25;;;;;-147.17;100.00;-15917.19;4994179;28;51548;-46
2022/11/12 06:27:16;;;;;;;;;26.50;22.25;;;;;-147.17;100.00;-15917.19;4994607;28;51272;-46
2022/11/12 06:29:42;;;;;;;;;26.25;24.00;;;;;-147.17;100.00;-15917.19;4994338;28;52815;-46
2022/11/12 06:32:07;;;;;;;;;21.25;21.25;;;;;-147.17;100.00;-15917.19;4993954;28;51219;-53
2022/11/12 06:34:32;;;;;;;;;23.25;22.50;;;;;-147.17;100.00;-15917.19;4994022;28;58969;-46
2022/11/12 06:36:58;;;;;;;;;23.25;21.50;;;;;-147.17;100.00;-15917.19;4994045;28;51081;-46
2022/11/12 06:39:23;;;;;;;;;25.50;23.00;;;;;-147.17;100.00;-15917.19;4994506;28;50993;-46
2022/11/12 06:41:48;;;;;;;;;20.00;19.50;;;;;-147.17;100.00;-15917.19;4993642;28;51180;-46
2022/11/12 06:44:14;;;;;;;;;20.50;20.00;;;;;-147.17;100.00;-15917.19;4994378;28;51013;-46
2022/11/12 06:46:39;;;;;;;;;20.25;19.75;;;;;-147.17;100.00;-15917.19;4993664;28;51273;-47
2022/11/12 06:49:04;;;;;;;;;19.75;18.25;;;;;-147.17;100.00;-15917.19;4988196;28;51768;-47
2022/11/12 06:51:30;;;;;;;;;22.25;19.00;;;;;-147.17;100.00;-15917.19;4991812;28;51064;-46
2022/11/12 06:53:55;;;;;;;;;20.00;19.50;;;;;-147.17;100.00;-15917.19;4991365;28;51084;-46
2022/11/12 06:56:20;;;;;;;;;25.50;21.75;;;;;-147.17;100.00;-15917.19;4976765;28;51084;-47
2022/11/12 06:58:45;;;;;;;;;23.00;20.00;;;;;-147.17;100.00;-15917.19;4974187;28;52457;-46
2022/11/12 07:01:16;;;;;;;;;19.75;17.25;;;;;-147.17;100.00;-15917.19;4973090;28;51017;-48
2022/11/12 07:03:42;;;;;;;;;18.75;17.25;;;;;-147.17;100.00;-15917.19;4974326;28;50945;-47
2022/11/12 07:06:13;;;;;;;;;20.75;19.50;;;;;-147.17;100.00;-15917.19;4974483;28;51297;-49
2022/11/12 07:08:40;;;;;;;;;23.00;21.00;;;;;-147.17;100.00;-15917.19;4974161;28;51891;-46
2022/11/12 07:11:06;;;;;;;;;25.25;25.25;;;;;-147.17;100.00;-15917.19;4974171;28;50898;-47
2022/11/12 07:13:33;;;;;;;;;20.25;18.25;;;;;-147.17;100.00;-15917.19;4974328;28;51136;-47
2022/11/12 07:15:59;;;;;;;;;19.25;17.75;;;;;-147.17;100.00;-15917.19;4969971;28;51390;-47
2022/11/12 07:18:25;;;;;;;;;22.25;20.75;;;;;-147.17;100.00;-15917.19;4973491;28;52058;-47
2022/11/12 07:20:55;;;;;;;;;23.50;21.25;;;;;-147.17;100.00;-15917.19;4974301;28;51139;-46
2022/11/12 07:23:21;;;;;;;;;19.25;17.75;;;;;-147.17;100.00;-15917.19;4973863;28;51186;-47
2022/11/12 07:25:46;;;;;;;;;19.25;19.25;;;;;-147.17;100.00;-15917.19;4973635;28;53348;-46
2022/11/12 07:28:12;;;;;;;;;21.00;20.25;;;;;-147.17;100.00;-15917.19;4973797;28;51291;-46
2022/11/12 07:30:37;;;;;;;;;18.50;17.75;;;;;-147.17;100.00;-15917.19;4973286;28;50921;-46
2022/11/12 07:33:02;;;;;;;;;23.25;21.75;;;;;-147.17;100.00;-15917.19;4973829;28;51057;-46
2022/11/12 07:35:28;;;;;;;;;19.25;18.25;;;;;-147.17;100.00;-15917.19;4972939;28;51435;-46
2022/11/12 07:37:53;;;;;;;;;25.50;21.00;;;;;-147.17;100.00;-15917.19;4964643;28;51754;-47
2022/11/12 07:40:18;;;;;;;;;25.00;22.00;;;;;-147.17;100.00;-15917.19;4973852;28;51052;-47
2022/11/12 07:42:43;;;;;;;;;25.25;21.75;;;;;-147.17;100.00;-15917.19;4973589;28;50997;-47
2022/11/12 07:45:09;;;;;;;;;26.25;23.00;;;;;-147.17;100.00;-15917.19;4965758;28;51247;-46
2022/11/12 07:47:34;;;;;;;;;22.25;21.25;;;;;-147.17;100.00;-15917.19;4968677;28;51764;-46
2022/11/12 07:50:00;;;;;;;;;22.50;19.50;;;;;-147.17;100.00;-15917.19;4970841;28;50954;-47
2022/11/12 07:52:25;;;;;;;;;20.50;19.00;;;;;-147.17;100.00;-15917.19;4978248;28;51016;-47
2022/11/12 07:54:50;;;;;;;;;19.50;17.00;;;;;-147.17;100.00;-15917.19;4994473;28;50960;-47
2022/11/12 07:57:15;;;;;;;;;23.00;20.75;;;;;-147.17;100.00;-15917.19;4992300;28;51088;-46
2022/11/12 07:59:41;;;;;;;;;17.75;16.00;;;;;-147.17;100.00;-15917.19;4992549;28;51145;-46
2022/11/12 08:02:08;;;;;;;;;19.75;17.00;;;;;-147.17;100.00;-15917.19;4982423;28;51228;-45
2022/11/12 08:04:34;;;;;;;;;20.25;19.50;;;;;-147.17;100.00;-15917.19;4989850;28;51257;-47
2022/11/12 08:06:59;;;;;;;;;23.25;20.75;;;;;-147.17;100.00;-15917.19;4992930;28;50958;-47
2022/11/12 08:09:25;;;;;;;;;15.75;13.75;;;;;-147.17;100.00;-15917.19;4992465;28;51037;-46
2022/11/12 08:11:50;;;;;;;;;22.00;21.25;;;;;-147.17;100.00;-15917.19;4993209;28;51088;-46
2022/11/12 08:14:15;;;;;;;;;24.00;22.00;;;;;-147.17;100.00;-15917.19;4990453;28;51352;-46
2022/11/12 08:16:41;;;;;;;;;24.25;22.50;;;;;-147.17;100.00;-15917.19;4990824;28;52780;-46
2022/11/12 08:19:06;;;;;;;;;22.25;21.25;;;;;-147.17;100.00;-15917.19;4978621;28;51281;-46
2022/11/12 08:21:31;;;;;;;;;22.00;21.00;;;;;-147.17;100.00;-15917.19;4992413;28;51189;-46
2022/11/12 08:23:56;;;;;;;;;27.50;23.00;;;;;-147.17;100.00;-15917.19;4991958;28;51018;-47
2022/11/12 08:26:22;;;;;;;;;22.50;22.25;;;;;-147.17;100.00;-15917.19;4991223;28;52169;-48
2022/11/12 08:28:47;;;;;;;;;22.75;22.50;;;;;-147.17;100.00;-15917.19;4991578;28;51160;-46
2022/11/12 08:31:16;;;;;;;;;23.00;23.00;;;;;-147.17;100.00;-15917.19;4993663;28;50911;-46
2022/11/12 08:33:42;;;;;;;;;23.75;22.25;;;;;-147.17;100.00;-15917.19;4990366;28;51364;-46
2022/11/12 08:36:10;;;;;;;;;28.25;24.75;;;;;-147.17;100.00;-15917.19;4990834;28;52033;-46
2022/11/12 08:38:36;;;;;;;;;19.00;17.75;;;;;-147.17;100.00;-15917.19;4990757;28;50892;-46
2022/11/12 08:41:09;;;;;;;;;24.50;23.75;;;;;-147.17;100.00;-15917.19;4992059;28;51163;-46
2022/11/12 08:43:35;;;;;;;;;24.00;24.00;;;;;-147.17;100.00;-15917.19;4992886;28;50991;-48
2022/11/12 08:46:02;;;;;;;;;22.25;21.25;;;;;-147.17;100.00;-15917.19;4992086;28;51142;-48
2022/11/12 08:48:28;;;;;;;;;20.50;19.75;;;;;-147.17;100.00;-15917.19;4990295;28;50923;-47
2022/11/12 08:50:54;;;;;;;;;22.00;21.00;;;;;-147.17;100.00;-15917.19;4992532;28;51032;-46
2022/11/12 08:53:22;;;;;;;;;20.50;20.50;;;;;-147.17;100.00;-15917.19;4992464;28;50910;-46
2022/11/12 08:55:47;;;;;;;;;22.75;22.75;;;;;-147.17;100.00;-15917.19;5001248;28;51854;-48
2022/11/12 08:58:13;;;;;;;;;32.00;28.75;;;;;-147.17;100.00;-15917.19;4992195;28;51245;-47
2022/11/12 09:00:43;;;;;;;;;24.25;24.25;;;;;-147.17;100.00;-15917.19;4989440;28;51153;-47
2022/11/12 09:03:14;;;;;;;;;26.00;25.00;;;;;-147.17;100.00;-15917.19;4986647;28;51127;-48
2022/11/12 09:05:41;;;;;;;;;28.25;27.50;;;;;-147.17;100.00;-15917.19;4991965;28;53561;-47
2022/11/12 09:08:09;;;;;;;;;31.25;28.50;;;;;-147.17;100.00;-15917.19;4992034;28;51205;-46
2022/11/12 09:10:35;;;;;;;;;29.50;27.25;;;;;-147.17;100.00;-15917.19;4992630;28;51091;-47
2022/11/12 09:13:02;;;;;;;;;23.00;22.00;;;;;-147.17;100.00;-15917.19;4992225;28;50954;-46
2022/11/12 09:15:28;;;;;;;;;25.75;24.75;;;;;-147.17;100.00;-15917.19;4991832;28;51826;-48
2022/11/12 09:17:56;;;;;;;;;28.00;25.25;;;;;-147.17;100.00;-15917.19;4990831;28;50946;-46
2022/11/12 09:20:22;;;;;;;;;30.25;28.25;;;;;-147.17;100.00;-15917.19;4974494;28;51079;-47
2022/11/12 09:22:47;;;;;;;;;28.25;28.25;;;;;-147.17;100.00;-15917.19;4995602;28;51154;-46
2022/11/12 09:25:13;;;;;;;;;30.50;28.50;;;;;-147.17;100.00;-15917.19;4992504;28;52013;-47
2022/11/12 09:27:38;;;;;;;;;31.75;30.50;;;;;-147.17;100.00;-15917.19;4993860;28;51058;-47
2022/11/12 09:30:05;;;;;;;;;25.75;24.50;;;;;-147.17;100.00;-15917.19;4994982;28;51135;-47
2022/11/12 09:32:31;;;;;;;;;27.00;25.25;;;;;-147.17;100.00;-15917.19;4966929;28;51469;-48
2022/11/12 09:34:56;;;;;;;;;29.75;27.75;;;;;-147.17;100.00;-15917.19;4991341;28;51151;-48
2022/11/12 09:37:21;;;;;;;;;33.00;31.25;;;;;-147.17;100.00;-15917.19;4994530;28;51160;-48
2022/11/12 09:39:47;;;;;;;;;27.00;26.75;;;;;-147.17;100.00;-15917.19;4995386;28;51054;-48
2022/11/12 09:42:16;;;;;;;;;19.50;19.50;;;;;-147.17;100.00;-15917.19;4982939;28;51074;-47
2022/11/12 09:44:44;;;;;;;;;28.75;28.00;;;;;-147.17;100.00;-15917.19;4994946;28;52138;-47
2022/11/12 09:47:23;;;;;;;;;30.25;27.50;;;;;-147.17;100.00;-15917.19;4995074;28;51040;-46
2022/11/12 09:50:14;;;;;;;;;30.00;27.00;;;;;-147.17;100.00;-15917.19;4985826;28;50931;-47
2022/11/12 09:52:42;;;;;;;;;29.75;27.50;;;;;-147.17;100.00;-15917.19;4993590;28;51268;-47
2022/11/12 09:55:29;;;;;;;;;29.25;28.00;;;;;-147.17;100.00;-15917.19;5005944;28;51234;-46
2022/11/12 09:57:56;;;;;;;;;29.00;27.50;;;;;-147.17;100.00;-15917.19;4988026;28;51108;-48
2022/11/12 10:00:21;;;;;;;;;29.00;26.75;;;;;-147.17;100.00;-15917.19;4988381;28;51112;-47
2022/11/12 10:03:00;;;;;;;;;27.25;25.75;;;;;-147.17;100.00;-15917.19;4994342;28;50817;-48
2022/11/12 10:05:35;;;;;;;;;25.25;24.50;;;;;-147.17;100.00;-15917.19;4994300;28;51041;-47
2022/11/12 10:08:27;;;;;;;;;32.25;29.75;;;;;-147.17;100.00;-15917.19;4989359;28;51147;-47
2022/11/12 10:11:27;;;;;;;;;35.00;32.00;;;;;-147.17;100.00;-15917.19;4982206;28;50975;-49
2022/11/12 10:14:15;;;;;;;;;38.25;33.75;;;;;-147.17;100.00;-15917.19;4993486;28;51155;-48
2022/11/12 10:16:55;;;;;;;;;31.00;27.75;;;;;-147.17;100.00;-15917.19;4983535;28;52129;-47
2022/11/12 10:19:43;;;;;;;;;34.00;33.00;;;;;-147.17;100.00;-15917.19;4976966;28;51072;-47
2022/11/12 10:22:40;;;;;;;;;32.50;26.25;;;;;-147.17;100.00;-15917.19;4992427;28;51271;-48
2022/11/12 10:25:13;;;;;;;;;31.75;30.75;;;;;-147.17;100.00;-15917.19;4993894;28;51119;-47
2022/11/12 10:27:41;;;;;;;;;34.00;32.00;;;;;-147.17;100.00;-15917.19;4992945;28;51823;-47
2022/11/12 10:30:14;;;;;;;;;35.50;33.50;;;;;-147.17;100.00;-15917.19;4993413;28;51101;-47
2022/11/12 10:32:45;;;;;;;;;34.50;33.00;;;;;-147.17;100.00;-15917.19;4981122;28;51133;-47
2022/11/12 10:35:15;;;;;;;;;37.75;34.50;;;;;-147.17;100.00;-15917.19;4974622;28;51311;-48
2022/11/12 10:37:48;;;;;;;;;35.50;32.25;;;;;-147.17;100.00;-15917.19;4993352;28;51053;-46
2022/11/12 10:40:25;;;;;;;;;38.00;34.75;;;;;-147.17;100.00;-15917.19;4992955;28;50901;-46
2022/11/12 10:42:58;;;;;;;;;34.50;33.50;;;;;-147.17;100.00;-15917.19;4975645;28;51047;-48
2022/11/12 10:45:23;;;;;;;;;46.50;38.00;;;;;-147.17;100.00;-15917.19;4993248;28;51100;-46
2022/11/12 10:47:49;;;;;;;;;33.25;32.00;;;;;-147.17;100.00;-15917.19;4991386;28;51837;-48
2022/11/12 10:50:33;;;;;;;;;36.00;32.50;;;;;-147.17;100.00;-15917.19;4993332;28;51076;-47
2022/11/12 10:53:01;;;;;;;;;34.75;32.50;;;;;-147.17;100.00;-15917.19;4975100;28;50999;-47
2022/11/12 10:55:53;;;;;;;;;37.75;34.00;;;;;-147.17;100.00;-15917.19;4992752;28;51138;-48
2022/11/12 10:58:19;;;;;;;;;33.50;32.00;;;;;-147.17;100.00;-15917.19;4975198;28;51720;-48
2022/11/12 11:01:13;;;;;;;;;37.00;34.00;;;;;-147.17;100.00;-15917.19;4992724;28;50984;-48
2022/11/12 11:03:52;;;;;;;;;35.50;31.25;;;;;-147.17;100.00;-15917.19;4991892;28;51241;-49
2022/11/12 11:06:24;;;;;;;;;38.50;33.75;;;;;-147.17;100.00;-15917.19;4992704;28;51362;-46
2022/11/12 11:08:53;;;;;;;;;36.75;33.00;;;;;-147.17;100.00;-15917.19;4992631;28;52342;-48
2022/11/12 11:11:29;;;;;;;;;35.75;33.00;;;;;-147.17;100.00;-15917.19;4992866;28;51215;-48